createdAt,value
2022-08-12T00:01:09.660Z,16.10
2022-08-12T00:03:55.154Z,16.20
2022-08-12T00:06:41.138Z,16.10
2022-08-12T00:09:26.783Z,16.00
2022-08-12T00:12:13.062Z,16.00
2022-08-12T00:14:58.976Z,15.90
2022-08-12T00:17:44.378Z,15.90
2022-08-12T00:20:30.013Z,15.90
2022-08-12T00:23:16.457Z,15.80
2022-08-12T00:26:22.257Z,15.80
2022-08-12T00:29:11.980Z,15.80
2022-08-12T00:32:00.021Z,16.00
2022-08-12T00:34:47.800Z,15.90
2022-08-12T00:37:42.843Z,15.90
2022-08-12T00:40:30.484Z,15.80
2022-08-12T00:42:58.513Z,15.70
2022-08-12T00:45:26.217Z,15.60
2022-08-12T00:47:56.031Z,15.60
2022-08-12T00:50:25.332Z,15.50
2022-08-12T00:52:52.942Z,15.40
2022-08-12T00:55:21.186Z,15.40
2022-08-12T00:57:51.952Z,15.40
2022-08-12T01:00:24.714Z,15.30
2022-08-12T01:02:58.530Z,15.30
2022-08-12T01:05:48.300Z,15.20
2022-08-12T01:08:33.813Z,15.10
2022-08-12T01:11:21.148Z,15.00
2022-08-12T01:13:50.862Z,15.00
2022-08-12T01:16:24.900Z,14.90
2022-08-12T01:18:56.964Z,14.90
2022-08-12T01:21:41.962Z,14.80
2022-08-12T01:24:43.889Z,14.80
2022-08-12T01:27:14.323Z,14.70
2022-08-12T01:29:45.153Z,14.70
2022-08-12T01:32:15.077Z,14.70
2022-08-12T01:34:52.581Z,14.70
2022-08-12T01:37:26.464Z,14.60
2022-08-12T01:40:36.251Z,14.60
2022-08-12T01:42:47.886Z,14.60
2022-08-12T01:45:17.541Z,14.60
2022-08-12T01:48:14.446Z,14.50
2022-08-12T01:51:05.316Z,14.50
2022-08-12T01:53:51.431Z,14.40
2022-08-12T01:56:22.027Z,14.40
2022-08-12T01:59:12.401Z,14.30
2022-08-12T02:01:40.250Z,14.30
2022-08-12T02:04:46.573Z,14.20
2022-08-12T02:08:02.219Z,14.20
2022-08-12T02:10:52.022Z,14.20
2022-08-12T02:13:43.798Z,14.10
2022-08-12T02:16:36.359Z,14.20
2022-08-12T02:19:35.532Z,14.20
2022-08-12T02:22:20.265Z,14.10
2022-08-12T02:24:54.090Z,14.10
2022-08-12T02:27:24.445Z,14.10
2022-08-12T02:29:53.312Z,14.10
2022-08-12T02:32:21.214Z,14.10
2022-08-12T02:34:48.189Z,14.10
2022-08-12T02:37:15.563Z,14.00
2022-08-12T02:39:48.737Z,13.80
2022-08-12T02:42:20.696Z,13.80
2022-08-12T02:44:53.131Z,13.80
2022-08-12T02:47:58.261Z,13.80
2022-08-12T02:50:14.640Z,13.80
2022-08-12T02:52:42.314Z,13.70
2022-08-12T02:55:28.389Z,13.70
2022-08-12T02:58:09.248Z,13.70
2022-08-12T03:00:40.566Z,13.60
2022-08-12T03:03:13.021Z,13.60
2022-08-12T03:05:59.440Z,13.60
2022-08-12T03:08:37.432Z,13.60
2022-08-12T03:11:23.611Z,13.60
2022-08-12T03:13:57.983Z,13.50
2022-08-12T03:16:27.967Z,13.50
2022-08-12T03:18:55.106Z,13.50
2022-08-12T03:21:55.442Z,13.50
2022-08-12T03:24:17.500Z,13.40
2022-08-12T03:26:58.588Z,13.30
2022-08-12T03:29:32.781Z,13.30
2022-08-12T03:32:36.387Z,13.30
2022-08-12T03:35:40.229Z,13.40
2022-08-12T03:38:05.570Z,13.30
2022-08-12T03:41:23.694Z,13.20
2022-08-12T03:44:45.932Z,13.20
2022-08-12T03:47:41.468Z,13.20
2022-08-12T03:50:29.636Z,13.20
2022-08-12T03:53:15.106Z,13.10
2022-08-12T03:56:03.150Z,13.00
2022-08-12T03:58:49.130Z,13.10
2022-08-12T04:01:15.950Z,13.10
2022-08-12T04:03:55.080Z,13.10
2022-08-12T04:06:35.316Z,13.00
2022-08-12T04:09:16.542Z,13.10
2022-08-12T04:12:03.857Z,13.00
2022-08-12T04:14:31.774Z,13.00
2022-08-12T04:16:58.989Z,13.00
2022-08-12T04:19:28.236Z,13.00
2022-08-12T04:22:01.331Z,13.00
2022-08-12T04:24:35.330Z,13.00
2022-08-12T04:27:05.682Z,13.00
2022-08-12T04:30:30.687Z,13.00
2022-08-12T04:32:27.108Z,13.10
2022-08-12T04:34:54.666Z,13.20
2022-08-12T04:37:23.531Z,13.10
2022-08-12T04:39:51.294Z,13.10
2022-08-12T04:42:20.091Z,13.10
2022-08-12T04:44:48.398Z,13.10
2022-08-12T04:47:16.519Z,13.20
2022-08-12T04:49:48.109Z,13.20
2022-08-12T04:52:15.603Z,13.20
2022-08-12T04:54:45.169Z,13.20
2022-08-12T04:57:11.969Z,13.20
2022-08-12T04:59:48.084Z,13.40
2022-08-12T05:02:22.817Z,13.70
2022-08-12T05:05:01.181Z,13.90
2022-08-12T05:07:30.567Z,13.80
2022-08-12T05:10:02.729Z,13.70
2022-08-12T05:12:39.703Z,13.70
2022-08-12T05:15:19.881Z,13.80
2022-08-12T05:17:55.901Z,13.80
2022-08-12T05:20:26.140Z,14.00
2022-08-12T05:23:13.321Z,14.10
2022-08-12T05:25:45.965Z,14.10
2022-08-12T05:28:13.820Z,14.30
2022-08-12T05:30:42.559Z,14.30
2022-08-12T05:33:12.533Z,14.30
2022-08-12T05:35:44.430Z,14.40
2022-08-12T05:38:32.721Z,14.50
2022-08-12T05:41:00.661Z,14.50
2022-08-12T05:43:28.779Z,14.60
2022-08-12T05:45:55.973Z,14.60
2022-08-12T05:48:23.351Z,14.70
2022-08-12T05:50:50.158Z,14.80
2022-08-12T05:53:16.931Z,15.00
2022-08-12T05:55:43.734Z,15.10
2022-08-12T05:58:12.693Z,15.20
2022-08-12T06:00:42.442Z,15.40
2022-08-12T06:03:12.962Z,15.50
2022-08-12T06:05:51.911Z,15.60
2022-08-12T06:08:26.930Z,15.80
2022-08-12T06:10:53.872Z,15.90
2022-08-12T06:13:28.091Z,16.10
2022-08-12T06:16:08.182Z,16.20
2022-08-12T06:18:35.208Z,16.40
2022-08-12T06:21:04.311Z,16.60
2022-08-12T06:23:31.063Z,16.60
2022-08-12T06:25:58.474Z,16.70
2022-08-12T06:28:30.582Z,16.90
2022-08-12T06:31:24.192Z,17.10
2022-08-12T06:33:55.466Z,17.20
2022-08-12T06:36:33.598Z,17.40
2022-08-12T06:39:01.002Z,17.50
2022-08-12T06:42:30.835Z,17.60
2022-08-12T06:44:35.385Z,17.60
2022-08-12T06:47:02.205Z,17.70
2022-08-12T06:49:36.628Z,17.80
2022-08-12T06:52:07.364Z,18.00
2022-08-12T06:54:35.380Z,18.10
2022-08-12T06:57:04.753Z,18.20
2022-08-12T06:59:51.007Z,18.30
2022-08-12T07:02:20.559Z,18.40
2022-08-12T07:04:48.110Z,18.50
2022-08-12T07:07:20.130Z,18.60
2022-08-12T07:10:01.132Z,18.70
2022-08-12T07:12:34.028Z,18.90
2022-08-12T07:15:02.665Z,19.00
2022-08-12T07:17:35.838Z,19.00
2022-08-12T07:20:29.687Z,19.20
2022-08-12T07:22:59.966Z,19.40
2022-08-12T07:25:40.877Z,19.50
2022-08-12T07:28:23.591Z,19.60
2022-08-12T07:30:54.215Z,19.70
2022-08-12T07:33:24.199Z,19.90
2022-08-12T07:35:54.401Z,20.20
2022-08-12T07:38:38.780Z,20.50
2022-08-12T07:41:15.803Z,20.60
2022-08-12T07:44:07.010Z,20.70
2022-08-12T07:46:38.943Z,20.80
2022-08-12T07:49:11.746Z,20.90
2022-08-12T07:51:42.052Z,21.00
2022-08-12T07:54:09.680Z,21.00
2022-08-12T07:56:38.373Z,21.10
2022-08-12T07:59:06.441Z,21.20
2022-08-12T08:01:33.241Z,21.30
2022-08-12T08:04:19.498Z,21.50
2022-08-12T08:06:47.317Z,21.50
2022-08-12T08:09:16.702Z,21.60
2022-08-12T08:12:02.038Z,21.70
2022-08-12T08:14:29.321Z,21.80
2022-08-12T08:16:57.908Z,21.90
2022-08-12T08:19:25.489Z,22.00
2022-08-12T08:21:54.910Z,22.10
2022-08-12T08:24:26.965Z,22.20
2022-08-12T08:26:58.899Z,22.20
2022-08-12T08:29:29.260Z,22.30
2022-08-12T08:32:00.034Z,22.50
2022-08-12T08:34:54.228Z,22.50
2022-08-12T08:37:17.296Z,22.60
2022-08-12T08:39:46.476Z,22.80
2022-08-12T08:42:31.794Z,22.90
2022-08-12T08:45:12.896Z,23.00
2022-08-12T08:48:00.404Z,23.10
2022-08-12T08:50:27.532Z,23.20
2022-08-12T08:52:56.715Z,23.30
2022-08-12T08:55:33.366Z,23.40
2022-08-12T08:58:04.351Z,23.40
2022-08-12T09:00:31.110Z,23.30
2022-08-12T09:03:02.619Z,23.40
2022-08-12T09:05:43.013Z,23.40
2022-08-12T09:08:26.577Z,23.50
2022-08-12T09:10:59.790Z,23.70
2022-08-12T09:14:11.310Z,23.70
2022-08-12T09:16:21.532Z,23.70
2022-08-12T09:18:53.257Z,23.80
2022-08-12T09:21:22.898Z,23.80
2022-08-12T09:26:46.285Z,23.80
2022-08-12T09:29:15.651Z,23.90
2022-08-12T09:32:06.500Z,23.90
2022-08-12T09:34:33.963Z,24.10
2022-08-12T09:37:19.488Z,24.20
2022-08-12T09:40:04.206Z,24.30
2022-08-12T09:43:15.046Z,24.30
2022-08-12T09:46:11.977Z,24.30
2022-08-12T09:48:36.711Z,24.30
2022-08-12T09:51:17.198Z,24.30
2022-08-12T09:54:05.576Z,24.30
2022-08-12T09:56:59.208Z,24.40
2022-08-12T10:00:12.728Z,24.40
2022-08-12T10:02:45.018Z,24.40
2022-08-12T10:05:04.110Z,24.50
2022-08-12T10:07:40.301Z,24.60
2022-08-12T10:10:22.397Z,24.60
2022-08-12T10:13:16.924Z,24.70
2022-08-12T10:16:05.545Z,24.70
2022-08-12T10:18:35.433Z,24.70
2022-08-12T10:21:09.507Z,24.80
2022-08-12T10:23:39.755Z,25.00
2022-08-12T10:26:37.569Z,25.00
2022-08-12T10:30:38.783Z,25.00
2022-08-12T10:32:44.081Z,25.00
2022-08-12T10:35:09.610Z,25.00
2022-08-12T10:38:33.326Z,25.00
2022-08-12T10:40:28.586Z,25.10
2022-08-12T10:43:16.889Z,25.00
2022-08-12T10:45:46.106Z,25.00
2022-08-12T10:48:21.087Z,25.10
2022-08-12T10:51:02.504Z,25.30
2022-08-12T10:53:44.986Z,25.40
2022-08-12T10:56:17.302Z,25.50
2022-08-12T10:58:47.737Z,25.60
2022-08-12T11:01:49.387Z,25.70
2022-08-12T11:04:26.564Z,25.80
2022-08-12T11:07:08.652Z,25.60
2022-08-12T11:10:00.860Z,25.70
2022-08-12T11:12:55.019Z,25.80
2022-08-12T11:15:33.249Z,25.70
2022-08-12T11:18:11.805Z,25.80
2022-08-12T11:20:44.891Z,25.90
2022-08-12T11:23:25.107Z,26.10
2022-08-12T11:26:05.379Z,26.20
2022-08-12T11:28:34.585Z,26.30
2022-08-12T11:31:11.861Z,26.40
2022-08-12T11:34:04.238Z,26.50
2022-08-12T11:36:27.655Z,26.60
2022-08-12T11:38:58.522Z,26.60
2022-08-12T11:41:32.769Z,26.50
2022-08-12T11:44:07.231Z,26.70
2022-08-12T11:46:50.914Z,26.90
2022-08-12T11:49:26.856Z,27.10
2022-08-12T11:51:59.021Z,27.10
2022-08-12T11:54:25.778Z,26.90
2022-08-12T11:57:00.180Z,26.80
2022-08-12T12:02:20.206Z,26.70
2022-08-12T12:04:52.654Z,26.60
2022-08-12T12:07:22.653Z,26.50
2022-08-12T12:10:00.506Z,26.50
2022-08-12T12:12:31.860Z,26.40
2022-08-12T12:15:03.130Z,26.40
2022-08-12T12:17:38.790Z,26.30
2022-08-12T12:20:09.602Z,26.30
2022-08-12T12:22:37.672Z,26.40
2022-08-12T12:25:12.628Z,26.40
2022-08-12T12:28:04.792Z,26.60
2022-08-12T12:30:38.560Z,26.90
2022-08-12T12:33:09.617Z,27.20
2022-08-12T12:36:18.581Z,27.30
2022-08-12T12:38:34.597Z,27.30
2022-08-12T12:41:16.617Z,27.20
2022-08-12T12:44:03.749Z,27.00
2022-08-12T12:46:35.939Z,27.00
2022-08-12T12:49:02.626Z,27.20
2022-08-12T12:52:02.005Z,27.30
2022-08-12T12:54:29.093Z,27.30
2022-08-12T12:56:55.996Z,27.30
2022-08-12T12:59:35.010Z,27.30
2022-08-12T13:02:31.711Z,27.30
2022-08-12T13:05:00.081Z,27.20
2022-08-12T13:07:49.032Z,27.00
2022-08-12T13:10:13.763Z,27.00
2022-08-12T13:12:42.537Z,27.10
2022-08-12T13:15:42.868Z,27.30
2022-08-12T13:18:05.829Z,27.40
2022-08-12T13:20:37.726Z,27.30
2022-08-12T13:23:35.994Z,27.40
2022-08-12T13:26:00.617Z,27.30
2022-08-12T13:28:29.435Z,27.00
2022-08-12T13:30:58.742Z,27.10
2022-08-12T13:33:29.208Z,27.20
2022-08-12T13:36:20.341Z,27.20
2022-08-12T13:38:54.527Z,27.10
2022-08-12T13:41:33.437Z,27.10
2022-08-12T13:44:10.503Z,27.10
2022-08-12T13:46:38.756Z,27.10
2022-08-12T13:49:07.605Z,27.20
2022-08-12T13:51:41.008Z,27.30
2022-08-12T13:54:13.975Z,27.30
2022-08-12T13:56:40.988Z,27.20
2022-08-12T13:59:08.820Z,27.20
2022-08-12T14:01:40.778Z,27.20
2022-08-12T14:04:13.232Z,27.30
2022-08-12T14:06:44.832Z,27.30
2022-08-12T14:09:15.542Z,27.20
2022-08-12T14:11:51.347Z,27.10
2022-08-12T14:14:26.432Z,27.30
2022-08-12T14:16:56.326Z,27.40
2022-08-12T14:19:27.112Z,27.70
2022-08-12T14:22:04.782Z,27.90
2022-08-12T14:24:40.105Z,27.90
2022-08-12T14:27:10.521Z,28.00
2022-08-12T14:30:04.870Z,27.90
2022-08-12T14:32:34.806Z,27.80
2022-08-12T14:35:09.353Z,27.60
2022-08-12T14:37:56.332Z,27.30
2022-08-12T14:40:32.330Z,27.10
2022-08-12T14:43:02.709Z,27.10
2022-08-12T14:45:45.054Z,27.00
2022-08-12T14:48:23.959Z,27.10
2022-08-12T14:51:09.723Z,27.40
2022-08-12T14:56:58.958Z,27.50
2022-08-12T14:59:56.399Z,27.50
2022-08-12T15:02:21.229Z,27.40
2022-08-12T15:04:56.060Z,27.20
2022-08-12T15:07:34.151Z,27.40
2022-08-12T15:10:10.051Z,27.60
2022-08-12T15:12:40.555Z,27.80
2022-08-12T15:15:08.869Z,28.00
2022-08-12T15:17:38.648Z,28.20
2022-08-12T15:20:31.858Z,28.10
2022-08-12T15:22:56.528Z,28.10
2022-08-12T15:25:24.859Z,28.20
2022-08-12T15:28:03.852Z,28.20
2022-08-12T15:30:37.532Z,28.10
2022-08-12T15:33:12.807Z,28.00
2022-08-12T15:35:50.410Z,27.80
2022-08-12T15:38:22.517Z,27.60
2022-08-12T15:40:55.027Z,27.60
2022-08-12T15:43:50.967Z,27.90
2022-08-12T15:46:15.046Z,28.90
2022-08-12T15:48:46.700Z,29.30
2022-08-12T15:51:59.564Z,29.90
2022-08-12T15:54:31.085Z,31.60
2022-08-12T15:57:10.823Z,33.00
2022-08-12T16:00:03.647Z,33.40
2022-08-12T16:02:50.545Z,33.70
2022-08-12T16:06:12.119Z,34.40
2022-08-12T16:08:15.222Z,34.50
2022-08-12T16:10:44.800Z,34.90
2022-08-12T16:13:14.581Z,35.30
2022-08-12T16:16:01.656Z,35.50
2022-08-12T16:18:37.266Z,35.50
2022-08-12T16:21:10.801Z,36.00
2022-08-12T16:23:58.103Z,35.80
2022-08-12T16:26:27.544Z,36.40
2022-08-12T16:29:15.620Z,36.90
2022-08-12T16:31:43.829Z,37.00
2022-08-12T16:34:25.882Z,36.80
2022-08-12T16:37:13.196Z,36.90
2022-08-12T16:40:01.093Z,37.70
2022-08-12T16:42:28.839Z,37.70
2022-08-12T16:45:00.422Z,36.80
2022-08-12T16:47:58.760Z,36.60
2022-08-12T16:50:19.443Z,36.80
2022-08-12T16:52:49.950Z,36.80
2022-08-12T16:55:19.146Z,36.70
2022-08-12T16:57:50.132Z,37.40
2022-08-12T17:00:24.935Z,37.40
2022-08-12T17:02:58.076Z,37.40
2022-08-12T17:05:31.274Z,36.80
2022-08-12T17:08:00.229Z,36.30
2022-08-12T17:10:36.013Z,36.80
2022-08-12T17:13:09.840Z,36.70
2022-08-12T17:15:57.612Z,36.90
2022-08-12T17:18:43.429Z,37.00
2022-08-12T17:21:19.555Z,36.70
2022-08-12T17:23:53.827Z,37.20
2022-08-12T17:26:28.373Z,37.60
2022-08-12T17:29:03.069Z,37.40
2022-08-12T17:31:59.907Z,36.40
2022-08-12T17:34:38.485Z,36.00
2022-08-12T17:37:06.285Z,35.60
2022-08-12T17:40:12.631Z,35.60
2022-08-12T17:42:32.525Z,35.50
2022-08-12T17:45:17.155Z,35.40
2022-08-12T17:48:00.009Z,35.20
2022-08-12T17:50:36.921Z,34.80
2022-08-12T17:53:10.937Z,34.80
2022-08-12T17:55:47.790Z,34.50
2022-08-12T17:58:37.174Z,34.50
2022-08-12T18:01:06.255Z,34.70
2022-08-12T18:04:04.231Z,34.30
2022-08-12T18:06:28.022Z,34.20
2022-08-12T18:08:58.798Z,34.10
2022-08-12T18:12:04.527Z,33.80
2022-08-12T18:14:40.944Z,32.60
2022-08-12T18:17:12.022Z,30.80
2022-08-12T18:20:06.994Z,29.50
2022-08-12T18:22:40.768Z,28.60
2022-08-12T18:26:12.931Z,27.90
2022-08-12T18:28:15.995Z,27.30
2022-08-12T18:30:53.378Z,26.90
2022-08-12T18:33:25.052Z,26.80
2022-08-12T18:35:55.572Z,26.50
2022-08-12T18:38:25.555Z,26.30
2022-08-12T18:41:20.930Z,26.10
2022-08-12T18:43:58.508Z,25.90
2022-08-12T18:46:54.130Z,25.70
2022-08-12T18:49:38.691Z,25.50
2022-08-12T18:52:11.548Z,25.30
2022-08-12T18:54:48.943Z,25.20
2022-08-12T18:58:00.458Z,25.00
2022-08-12T19:00:21.657Z,24.90
2022-08-12T19:02:50.831Z,24.70
2022-08-12T19:05:17.751Z,24.50
2022-08-12T19:08:00.728Z,24.40
2022-08-12T19:10:32.650Z,24.10
2022-08-12T19:13:24.032Z,24.00
2022-08-12T19:15:57.726Z,23.80
2022-08-12T19:18:29.189Z,23.50
2022-08-12T19:20:58.419Z,23.40
2022-08-12T19:23:35.083Z,23.40
2022-08-12T19:26:03.796Z,23.30
2022-08-12T19:28:36.566Z,23.20
2022-08-12T19:31:56.747Z,23.10
2022-08-12T19:35:32.800Z,22.90
2022-08-12T19:37:27.538Z,22.80
2022-08-12T19:40:19.803Z,22.80
2022-08-12T19:42:57.522Z,22.80
2022-08-12T19:45:43.969Z,22.80
2022-08-12T19:48:16.964Z,22.70
2022-08-12T19:50:49.892Z,22.70
2022-08-12T19:53:18.623Z,22.50
2022-08-12T19:55:51.854Z,22.30
2022-08-12T19:58:23.214Z,22.20
2022-08-12T20:00:55.804Z,22.10
2022-08-12T20:03:40.026Z,22.00
2022-08-12T20:06:14.056Z,22.00
2022-08-12T20:08:47.738Z,22.00
2022-08-12T20:12:13.025Z,21.80
2022-08-12T20:14:10.560Z,21.70
2022-08-12T20:16:52.783Z,21.50
2022-08-12T20:19:23.311Z,21.40
2022-08-12T20:21:50.718Z,21.20
2022-08-12T20:24:19.200Z,21.10
2022-08-12T20:26:49.057Z,21.00
2022-08-12T20:29:16.443Z,20.90
2022-08-12T20:31:45.740Z,20.80
2022-08-12T20:34:20.879Z,20.70
2022-08-12T20:36:57.045Z,20.60
2022-08-12T20:39:53.323Z,20.50
2022-08-12T20:42:20.261Z,20.40
2022-08-12T20:44:48.546Z,20.30
2022-08-12T20:47:19.730Z,20.20
2022-08-12T20:49:55.007Z,20.10
2022-08-12T20:52:30.520Z,20.10
2022-08-12T20:55:03.150Z,20.00
2022-08-12T20:57:37.895Z,19.90
2022-08-12T21:00:19.323Z,19.80
2022-08-12T21:02:52.034Z,19.80
2022-08-12T21:06:09.874Z,19.70
2022-08-12T21:08:27.273Z,19.60
2022-08-12T21:10:54.547Z,19.50
2022-08-12T21:13:29.505Z,19.50
2022-08-12T21:16:06.397Z,19.40
2022-08-12T21:18:38.012Z,19.20
2022-08-12T21:21:06.661Z,19.20
2022-08-12T21:23:37.408Z,19.10
2022-08-12T21:26:12.306Z,19.10
2022-08-12T21:28:44.153Z,19.00
2022-08-12T21:32:46.870Z,19.00
2022-08-12T21:34:19.950Z,18.90
2022-08-12T21:36:49.332Z,18.80
2022-08-12T21:39:21.828Z,18.70
2022-08-12T21:41:52.024Z,18.60
2022-08-12T21:45:44.128Z,18.50
2022-08-12T21:47:19.782Z,18.50
2022-08-12T21:50:02.495Z,18.40
2022-08-12T21:52:34.584Z,18.30
2022-08-12T21:55:08.564Z,18.20
2022-08-12T21:57:53.739Z,18.10
2022-08-12T22:00:33.002Z,18.10
2022-08-12T22:04:01.291Z,18.00
2022-08-12T22:06:26.535Z,18.00
2022-08-12T22:09:15.666Z,18.00
2022-08-12T22:11:44.079Z,17.90
2022-08-12T22:14:25.701Z,17.80
2022-08-12T22:16:54.447Z,17.70
2022-08-12T22:19:23.068Z,17.70
2022-08-12T22:21:52.270Z,17.60
2022-08-12T22:24:27.196Z,17.50
2022-08-12T22:27:08.076Z,17.60
2022-08-12T22:30:16.028Z,17.50
2022-08-12T22:32:49.771Z,17.40
2022-08-12T22:35:55.764Z,17.30
2022-08-12T22:38:29.098Z,17.20
2022-08-12T22:41:04.892Z,17.20
2022-08-12T22:43:59.853Z,17.10
2022-08-12T22:46:32.609Z,17.10
2022-08-12T22:48:59.391Z,17.10
2022-08-12T22:52:00.013Z,17.10
2022-08-12T22:54:35.116Z,17.00
2022-08-12T22:57:04.638Z,16.90
2022-08-12T22:59:51.183Z,16.90
2022-08-12T23:02:28.783Z,16.80
2022-08-12T23:04:57.836Z,16.80
2022-08-12T23:07:26.808Z,16.80
2022-08-12T23:10:03.878Z,16.70
2022-08-12T23:12:49.524Z,16.70
2022-08-12T23:15:16.431Z,16.70
2022-08-12T23:17:43.436Z,16.60
2022-08-12T23:20:15.155Z,16.60
2022-08-12T23:22:43.813Z,16.50
2022-08-12T23:25:22.989Z,16.40
2022-08-12T23:28:29.496Z,16.40
2022-08-12T23:31:04.349Z,16.40
2022-08-12T23:34:00.133Z,16.50
2022-08-12T23:36:38.997Z,16.40
2022-08-12T23:40:15.377Z,16.40
2022-08-12T23:42:17.466Z,16.20
2022-08-12T23:44:42.711Z,16.20
2022-08-12T23:47:12.592Z,16.10
2022-08-12T23:49:57.735Z,16.00
2022-08-12T23:52:28.586Z,15.90
2022-08-12T23:55:23.237Z,15.80
2022-08-12T23:58:17.072Z,15.60
